首页
METAR-TAF:

METAR-TAF

机场 :

克赖斯特彻奇国际机场

基督城, 新西兰

纬度: 43-29S, 经度: 172-33E, 海拔: 38米

当前天气观测

该预报发布于43分钟前的14:30 UTC
风速5节,风向西南
温度 10°C
湿度 93%
气压 1018 hPa
能见度10公里或以上

METAR: NZCH 251430Z AUTO 22005KT 9999 OVC031/// 10/09 Q1018 TEMPO BKN012

时间: 03:13 (15:13 UTC)

预报

该预报发布于4小时和3分钟前的11:10 UTC
预报有效从25日的 12点(UTC)到 26日的 12点(UTC)
风速10节,风向西南
能见度10公里或以上
少量云层高于1000英尺
多云层高于2500英尺
小阵雨
短暂存在
从 25日的 12点(UTC)到 25日的 16点(UTC)
能見度: 6000
多云层高于800英尺
阵雨
短暂存在
从 25日的 16点(UTC)到 25日的 22点(UTC)
多云层高于1200英尺

TAF: NZCH 251110Z 2512/2612 22010KT 9999 -SHRA FEW010 BKN025 TEMPO 2512/2516 6000 SHRA BKN008 TEMPO 2516/2522 BKN012

超过4000个机场的气象观测和天气预报(METAR&TAF报告)。

可查询的气象台以黄色和红色小点在地图上表示。

将鼠标移到小点上方,可查看气象台名称。

然后点击查看天气观测和预报。

如需切换地图:点击带黑十字的绿色按钮放大地图;点击带横线的绿色按钮缩小地图;或者点击绿色箭头查看邻近地区的地图。


METAR-TAF: